Time;durP1;ratioP1;P1;durP2;ratioP2;P2;SDS_P1;SDS_P2;PMS_P1;PMS_P2;Temp;Humidity;BMP_temperature;BMP_pressure;BME280_temperature;BME280_humidity;BME280_pressure;Samples;Min_cycle;Max_cycle;Signal;HPM_P1;HPM_P2
2022/11/27 00:00:26;;;;;;;18.65;6.00;;;;;;;;;;5165054;27;20050;-69
2022/11/27 00:02:52;;;;;;;16.05;5.00;;;;;;;;;;5164983;27;20051;-69
2022/11/27 00:05:19;;;;;;;9.85;5.05;;;;;;;;;;5163822;27;20054;-70
2022/11/27 00:07:45;;;;;;;12.48;4.13;;;;;;;;;;5164047;27;20046;-69
2022/11/27 00:10:12;;;;;;;12.98;4.82;;;;;;;;;;5164538;27;20440;-69
2022/11/27 00:12:38;;;;;;;12.18;4.88;;;;;;;;;;5147351;27;20566;-69
2022/11/27 00:15:05;;;;;;;10.63;5.03;;;;;;;;;;5163800;27;20050;-69
2022/11/27 00:17:31;;;;;;;18.20;5.78;;;;;;;;;;5156318;27;20054;-68
2022/11/27 00:19:57;;;;;;;10.27;4.38;;;;;;;;;;5164086;27;20331;-70
2022/11/27 00:22:25;;;;;;;14.73;4.55;;;;;;;;;;5165891;27;20059;-69
2022/11/27 00:24:51;;;;;;;17.42;4.78;;;;;;;;;;5164192;27;20485;-69
2022/11/27 00:27:17;;;;;;;9.68;4.57;;;;;;;;;;5165056;27;20561;-69
2022/11/27 00:29:44;;;;;;;15.63;4.97;;;;;;;;;;5158546;27;20054;-69
2022/11/27 00:32:10;;;;;;;15.48;4.72;;;;;;;;;;5164935;27;20150;-69
2022/11/27 00:34:37;;;;;;;11.70;4.65;;;;;;;;;;5164154;27;20142;-68
2022/11/27 00:37:06;;;;;;;11.77;4.72;;;;;;;;;;5164740;27;20566;-68
2022/11/27 00:39:32;;;;;;;12.40;4.50;;;;;;;;;;5153368;27;20047;-68
2022/11/27 00:41:58;;;;;;;13.35;4.43;;;;;;;;;;5165150;27;20051;-69
2022/11/27 00:44:25;;;;;;;15.30;5.07;;;;;;;;;;5162110;27;20054;-69
2022/11/27 00:46:51;;;;;;;10.05;4.45;;;;;;;;;;5157811;27;20058;-68
2022/11/27 00:49:17;;;;;;;16.10;4.43;;;;;;;;;;5159077;27;20055;-68
2022/11/27 00:51:44;;;;;;;13.80;4.78;;;;;;;;;;5165336;27;20047;-68
2022/11/27 00:54:10;;;;;;;11.95;4.68;;;;;;;;;;5164353;27;20058;-68
2022/11/27 00:56:37;;;;;;;11.00;4.85;;;;;;;;;;5163262;27;20134;-69
2022/11/27 00:59:04;;;;;;;13.68;4.88;;;;;;;;;;5157082;27;20042;-68
2022/11/27 01:01:35;;;;;;;14.20;4.68;;;;;;;;;;5164778;27;20051;-69
2022/11/27 01:04:03;;;;;;;13.70;5.10;;;;;;;;;;5161926;27;20054;-68
2022/11/27 01:06:29;;;;;;;16.00;4.30;;;;;;;;;;5147329;27;20055;-68
2022/11/27 01:08:56;;;;;;;10.23;4.72;;;;;;;;;;5156865;27;20156;-68
2022/11/27 01:11:26;;;;;;;12.60;6.03;;;;;;;;;;5164001;27;20169;-69
2022/11/27 01:13:54;;;;;;;12.20;4.82;;;;;;;;;;5165945;27;20103;-69
2022/11/27 01:16:22;;;;;;;10.27;4.30;;;;;;;;;;5138328;27;20061;-69
2022/11/27 01:18:49;;;;;;;10.95;4.93;;;;;;;;;;5160860;27;20079;-69
2022/11/27 01:21:16;;;;;;;12.13;4.88;;;;;;;;;;5163199;27;20066;-68
2022/11/27 01:23:43;;;;;;;9.57;4.25;;;;;;;;;;5164289;27;20206;-69
2022/11/27 01:26:10;;;;;;;8.90;4.70;;;;;;;;;;5161899;27;20051;-68
2022/11/27 01:28:38;;;;;;;18.38;4.82;;;;;;;;;;5162351;27;20078;-68
2022/11/27 01:31:05;;;;;;;15.93;5.03;;;;;;;;;;5164879;27;20097;-69
2022/11/27 01:33:32;;;;;;;11.82;4.63;;;;;;;;;;5162275;27;20061;-69
2022/11/27 01:36:00;;;;;;;11.55;4.47;;;;;;;;;;5161782;27;20337;-69
2022/11/27 01:38:27;;;;;;;13.30;4.30;;;;;;;;;;5159033;27;20061;-68
2022/11/27 01:41:00;;;;;;;15.85;5.18;;;;;;;;;;5163209;27;20058;-68
2022/11/27 01:43:43;;;;;;;11.43;5.13;;;;;;;;;;5164534;27;20047;-68
2022/11/27 01:46:18;;;;;;;9.52;4.40;;;;;;;;;;5164059;27;20051;-69
2022/11/27 01:48:45;;;;;;;9.68;4.15;;;;;;;;;;5161342;27;20046;-69
2022/11/27 01:51:11;;;;;;;13.93;5.25;;;;;;;;;;5164404;27;20057;-68
2022/11/27 01:53:38;;;;;;;12.20;5.15;;;;;;;;;;5163276;27;20055;-69
2022/11/27 01:56:05;;;;;;;12.98;4.68;;;;;;;;;;5162749;27;20050;-69
2022/11/27 01:58:32;;;;;;;14.18;5.30;;;;;;;;;;5161419;27;20087;-68
2022/11/27 02:00:59;;;;;;;12.73;4.70;;;;;;;;;;5162849;27;20580;-69
2022/11/27 02:03:25;;;;;;;12.10;4.70;;;;;;;;;;5163465;27;20047;-69
2022/11/27 02:05:51;;;;;;;13.27;4.47;;;;;;;;;;5163381;27;20055;-68
2022/11/27 02:08:18;;;;;;;12.13;5.03;;;;;;;;;;5156599;27;20051;-68
2022/11/27 02:10:49;;;;;;;13.45;5.55;;;;;;;;;;5159387;27;20490;-69
2022/11/27 02:13:19;;;;;;;12.57;4.70;;;;;;;;;;5161237;27;20059;-68
2022/11/27 02:16:05;;;;;;;10.85;4.25;;;;;;;;;;5164693;27;20039;-69
2022/11/27 02:18:37;;;;;;;11.45;4.68;;;;;;;;;;5160950;27;20047;-68
2022/11/27 02:21:15;;;;;;;16.23;4.70;;;;;;;;;;5161765;27;20103;-69
2022/11/27 02:24:11;;;;;;;9.50;4.13;;;;;;;;;;5162723;27;20069;-68
2022/11/27 02:26:37;;;;;;;;;;;;;;;;;;5143600;27;20367;-68
2022/11/27 02:29:04;;;;;;;;;;;;;;;;;;5160923;27;46447;-68
2022/11/27 02:31:36;;;;;;;11.27;5.10;;;;;;;;;;5161471;27;45210;-68
2022/11/27 02:34:09;;;;;;;20.42;4.78;;;;;;;;;;5158986;27;20046;-69
2022/11/27 02:36:38;;;;;;;15.30;4.97;;;;;;;;;;5159533;27;20051;-68
2022/11/27 02:39:07;;;;;;;12.20;5.05;;;;;;;;;;5160172;27;20057;-69
2022/11/27 02:41:40;;;;;;;12.68;4.90;;;;;;;;;;5163620;27;20061;-69
2022/11/27 02:44:08;;;;;;;12.52;4.75;;;;;;;;;;5163279;27;20051;-68
2022/11/27 02:46:35;;;;;;;12.25;4.47;;;;;;;;;;5163954;27;20241;-69
2022/11/27 02:49:05;;;;;;;13.20;4.50;;;;;;;;;;5163868;27;20080;-68
2022/11/27 02:51:37;;;;;;;12.02;4.85;;;;;;;;;;5166584;27;20057;-68
2022/11/27 02:54:06;;;;;;;15.23;5.20;;;;;;;;;;5165655;27;20130;-69
2022/11/27 02:56:33;;;;;;;14.18;4.50;;;;;;;;;;5151127;27;20077;-69
2022/11/27 02:59:01;;;;;;;15.77;4.60;;;;;;;;;;5164125;27;20424;-68
2022/11/27 03:01:31;;;;;;;11.82;4.18;;;;;;;;;;5167112;27;20065;-67
2022/11/27 03:03:58;;;;;;;25.23;5.43;;;;;;;;;;5164437;27;20050;-68
2022/11/27 03:06:30;;;;;;;9.70;4.50;;;;;;;;;;5165638;27;20051;-69
2022/11/27 03:08:59;;;;;;;12.98;4.43;;;;;;;;;;5162268;27;20154;-68
2022/11/27 03:11:26;;;;;;;8.38;4.68;;;;;;;;;;5165860;27;20058;-68
2022/11/27 03:13:53;;;;;;;12.85;4.25;;;;;;;;;;5166990;27;20050;-68
2022/11/27 03:16:25;;;;;;;11.13;5.05;;;;;;;;;;5166938;27;20641;-69
2022/11/27 03:18:55;;;;;;;10.18;5.50;;;;;;;;;;5164999;27;20047;-68
2022/11/27 03:21:31;;;;;;;12.32;4.95;;;;;;;;;;5166160;27;20055;-69
2022/11/27 03:23:57;;;;;;;17.67;5.00;;;;;;;;;;5165470;27;20052;-68
2022/11/27 03:26:24;;;;;;;10.88;4.30;;;;;;;;;;5153900;27;20141;-69
2022/11/27 03:28:51;;;;;;;10.07;4.97;;;;;;;;;;5161321;27;20090;-69
2022/11/27 03:31:18;;;;;;;10.07;4.32;;;;;;;;;;5165955;27;20523;-67
2022/11/27 03:33:45;;;;;;;14.10;4.78;;;;;;;;;;5164835;27;20082;-68
2022/11/27 03:36:13;;;;;;;6.70;4.22;;;;;;;;;;5165068;27;20090;-68
2022/11/27 03:38:39;;;;;;;16.67;4.78;;;;;;;;;;5163249;27;20057;-69
2022/11/27 03:41:10;;;;;;;14.43;4.43;;;;;;;;;;5166960;27;20053;-67
2022/11/27 03:43:50;;;;;;;10.15;4.15;;;;;;;;;;5166552;27;20267;-69
2022/11/27 03:46:22;;;;;;;14.57;5.28;;;;;;;;;;5145425;27;20047;-68
2022/11/27 03:48:57;;;;;;;10.68;4.57;;;;;;;;;;5154861;27;20501;-68
2022/11/27 03:51:37;;;;;;;13.85;4.93;;;;;;;;;;5166137;27;20067;-69
2022/11/27 03:54:03;;;;;;;14.38;4.60;;;;;;;;;;5165726;27;20047;-68
2022/11/27 03:56:47;;;;;;;12.25;4.93;;;;;;;;;;5165427;27;20042;-68
2022/11/27 03:59:20;;;;;;;13.02;5.18;;;;;;;;;;5162407;27;20125;-69
2022/11/27 04:01:47;;;;;;;13.07;4.72;;;;;;;;;;5163713;27;20058;-68
2022/11/27 04:04:14;;;;;;;9.65;4.88;;;;;;;;;;5161681;27;20047;-68
2022/11/27 04:06:40;;;;;;;13.15;5.00;;;;;;;;;;5165742;27;20051;-67
2022/11/27 04:09:06;;;;;;;12.40;4.88;;;;;;;;;;5162625;27;20054;-69
2022/11/27 04:11:33;;;;;;;16.65;4.40;;;;;;;;;;5165845;27;20054;-68
2022/11/27 04:13:59;;;;;;;11.80;4.45;;;;;;;;;;5164773;27;20054;-68
2022/11/27 04:16:25;;;;;;;16.05;5.40;;;;;;;;;;5165395;27;20392;-69
2022/11/27 04:18:52;;;;;;;11.02;4.35;;;;;;;;;;5163836;27;20046;-68
2022/11/27 04:21:18;;;;;;;9.32;4.45;;;;;;;;;;5157143;27;20047;-68
2022/11/27 04:23:44;;;;;;;8.48;4.57;;;;;;;;;;5164714;27;20055;-68
2022/11/27 04:26:11;;;;;;;8.40;4.13;;;;;;;;;;5164892;27;20051;-68
2022/11/27 04:28:37;;;;;;;16.40;4.57;;;;;;;;;;5147205;27;20123;-68
2022/11/27 04:31:04;;;;;;;12.15;4.35;;;;;;;;;;5162928;27;20062;-69
2022/11/27 04:33:30;;;;;;;9.75;4.68;;;;;;;;;;5165464;27;20051;-69
2022/11/27 04:35:56;;;;;;;8.68;4.72;;;;;;;;;;5163645;27;20055;-68
2022/11/27 04:38:23;;;;;;;12.30;5.78;;;;;;;;;;5164827;27;20071;-68
2022/11/27 04:40:52;;;;;;;9.45;4.45;;;;;;;;;;5157028;27;20053;-68
2022/11/27 04:43:18;;;;;;;14.95;4.50;;;;;;;;;;5160493;27;20551;-68
2022/11/27 04:45:45;;;;;;;9.95;4.15;;;;;;;;;;5164980;27;20084;-68
2022/11/27 04:48:11;;;;;;;7.57;4.00;;;;;;;;;;5164751;27;20138;-68
2022/11/27 04:50:38;;;;;;;11.40;4.40;;;;;;;;;;5165483;27;20054;-68
2022/11/27 04:53:04;;;;;;;11.40;4.05;;;;;;;;;;5164657;27;20628;-68
2022/11/27 04:55:30;;;;;;;7.40;3.92;;;;;;;;;;5164886;27;20050;-68
2022/11/27 04:57:56;;;;;;;11.32;3.97;;;;;;;;;;5163902;27;20051;-70
2022/11/27 05:00:23;;;;;;;13.52;4.47;;;;;;;;;;5163506;27;20147;-69
2022/11/27 05:02:49;;;;;;;7.13;4.03;;;;;;;;;;5163351;27;20051;-69
2022/11/27 05:05:16;;;;;;;10.20;4.32;;;;;;;;;;5163378;27;20516;-69
2022/11/27 05:07:42;;;;;;;13.82;4.50;;;;;;;;;;5164107;27;20078;-68
2022/11/27 05:10:09;;;;;;;7.70;3.70;;;;;;;;;;5161104;27;20043;-69
2022/11/27 05:12:35;;;;;;;8.13;3.13;;;;;;;;;;5165395;27;20524;-68
2022/11/27 05:15:02;;;;;;;6.43;3.30;;;;;;;;;;5164276;27;20608;-69
2022/11/27 05:17:30;;;;;;;13.85;4.13;;;;;;;;;;5164143;27;20046;-69
2022/11/27 05:19:56;;;;;;;11.05;4.32;;;;;;;;;;5163329;27;20081;-69
2022/11/27 05:22:22;;;;;;;7.93;3.55;;;;;;;;;;5163058;27;20051;-69
2022/11/27 05:24:49;;;;;;;8.45;3.45;;;;;;;;;;5150911;27;20047;-69
2022/11/27 05:27:15;;;;;;;8.07;3.80;;;;;;;;;;5162823;27;20496;-69
2022/11/27 05:29:42;;;;;;;10.20;3.60;;;;;;;;;;5162739;27;20042;-68
2022/11/27 05:32:08;;;;;;;7.75;3.90;;;;;;;;;;5145411;27;20053;-68
2022/11/27 05:34:35;;;;;;;8.00;3.47;;;;;;;;;;5164087;27;20047;-68
2022/11/27 05:37:01;;;;;;;5.70;3.08;;;;;;;;;;5164677;27;20050;-68
2022/11/27 05:39:27;;;;;;;11.50;4.43;;;;;;;;;;5154271;27;20055;-68
2022/11/27 05:41:54;;;;;;;7.88;3.20;;;;;;;;;;5164760;27;20554;-68
2022/11/27 05:44:20;;;;;;;7.50;3.30;;;;;;;;;;5144337;27;20046;-67
2022/11/27 05:46:46;;;;;;;9.25;4.18;;;;;;;;;;5164473;27;20051;-69
2022/11/27 05:49:14;;;;;;;7.75;3.85;;;;;;;;;;5161407;27;20523;-69
2022/11/27 05:51:40;;;;;;;9.80;3.90;;;;;;;;;;5163087;27;20054;-68
2022/11/27 05:54:14;;;;;;;9.40;3.70;;;;;;;;;;5161979;27;20059;-69
2022/11/27 05:56:40;;;;;;;8.13;3.85;;;;;;;;;;5164573;27;20054;-68
2022/11/27 05:59:08;;;;;;;5.68;3.63;;;;;;;;;;5163272;27;20156;-68
2022/11/27 06:01:35;;;;;;;7.13;3.40;;;;;;;;;;5148703;27;20049;-69
2022/11/27 06:04:01;;;;;;;12.98;3.65;;;;;;;;;;5162307;27;20401;-68
2022/11/27 06:06:27;;;;;;;11.23;3.83;;;;;;;;;;5163882;27;20055;-69
2022/11/27 06:08:54;;;;;;;9.98;3.55;;;;;;;;;;5163101;27;20550;-68
2022/11/27 06:11:21;;;;;;;5.60;3.30;;;;;;;;;;5162542;27;20058;-69
2022/11/27 06:13:48;;;;;;;8.88;3.60;;;;;;;;;;5159233;27;20054;-69
2022/11/27 06:16:15;;;;;;;7.47;3.38;;;;;;;;;;5162965;27;20042;-69
2022/11/27 06:18:42;;;;;;;6.50;3.33;;;;;;;;;;5162117;27;20061;-67
2022/11/27 06:21:12;;;;;;;6.78;3.38;;;;;;;;;;5162998;27;20047;-68
2022/11/27 06:23:40;;;;;;;8.45;3.38;;;;;;;;;;5163627;27;20054;-68
2022/11/27 06:26:20;;;;;;;11.75;4.38;;;;;;;;;;5167878;27;20061;-69
2022/11/27 06:28:47;;;;;;;9.77;3.72;;;;;;;;;;5165165;27;20053;-68
2022/11/27 06:31:14;;;;;;;10.07;3.60;;;;;;;;;;5165174;27;20461;-68
2022/11/27 06:33:44;;;;;;;7.50;3.08;;;;;;;;;;5166030;27;20054;-70
2022/11/27 06:36:10;;;;;;;8.38;4.05;;;;;;;;;;5166103;27;20046;-70
2022/11/27 06:38:37;;;;;;;11.93;4.68;;;;;;;;;;5168543;27;20043;-69
2022/11/27 06:41:08;;;;;;;8.68;3.50;;;;;;;;;;5166571;27;20055;-70
2022/11/27 06:43:34;;;;;;;6.80;3.13;;;;;;;;;;5166772;27;20495;-69
2022/11/27 06:46:02;;;;;;;12.55;3.53;;;;;;;;;;5167120;27;20100;-68
2022/11/27 06:48:29;;;;;;;9.18;3.40;;;;;;;;;;5165606;27;20051;-68
2022/11/27 06:51:02;;;;;;;14.60;4.20;;;;;;;;;;5165668;27;20053;-69
2022/11/27 06:53:30;;;;;;;11.88;3.72;;;;;;;;;;5165053;27;20130;-70
2022/11/27 06:55:56;;;;;;;6.38;3.17;;;;;;;;;;5167237;27;20047;-69
2022/11/27 06:58:23;;;;;;;8.15;3.63;;;;;;;;;;5165507;27;20053;-68
2022/11/27 07:00:59;;;;;;;7.93;3.63;;;;;;;;;;5166482;27;20066;-68
2022/11/27 07:03:26;;;;;;;8.68;3.70;;;;;;;;;;5166652;27;20455;-68
2022/11/27 07:05:52;;;;;;;5.72;3.53;;;;;;;;;;5147814;27;20474;-69
2022/11/27 07:08:19;;;;;;;8.00;3.45;;;;;;;;;;5164857;27;20547;-70
2022/11/27 07:10:45;;;;;;;8.70;3.88;;;;;;;;;;5156745;27;20058;-68
2022/11/27 07:13:11;;;;;;;7.55;4.32;;;;;;;;;;5166740;27;20047;-69
2022/11/27 07:15:38;;;;;;;13.13;4.45;;;;;;;;;;5164595;27;20047;-69
2022/11/27 07:18:04;;;;;;;10.32;4.22;;;;;;;;;;5164815;27;20050;-70
2022/11/27 07:20:31;;;;;;;7.45;3.53;;;;;;;;;;5160491;27;20047;-69
2022/11/27 07:22:57;;;;;;;9.85;4.55;;;;;;;;;;5164583;27;20047;-68
2022/11/27 07:25:23;;;;;;;9.05;3.40;;;;;;;;;;5159825;27;20526;-68
2022/11/27 07:27:50;;;;;;;4.32;2.90;;;;;;;;;;5159339;27;20509;-69
2022/11/27 07:30:18;;;;;;;10.18;3.45;;;;;;;;;;5163707;27;20529;-69
2022/11/27 07:32:44;;;;;;;7.93;3.38;;;;;;;;;;5165816;27;20415;-69
2022/11/27 07:35:11;;;;;;;7.78;3.55;;;;;;;;;;5167184;27;20054;-69
2022/11/27 07:37:38;;;;;;;7.93;3.58;;;;;;;;;;5161533;27;20500;-69
2022/11/27 07:40:05;;;;;;;8.55;3.53;;;;;;;;;;5166514;27;20051;-70
2022/11/27 07:42:31;;;;;;;8.48;3.63;;;;;;;;;;5161839;27;20042;-69
2022/11/27 07:45:08;;;;;;;10.48;3.42;;;;;;;;;;5159764;27;20130;-70
2022/11/27 07:47:34;;;;;;;9.75;3.08;;;;;;;;;;5161187;27;20050;-69
2022/11/27 07:50:01;;;;;;;6.85;3.00;;;;;;;;;;5158640;27;20047;-68
2022/11/27 07:52:27;;;;;;;10.35;3.70;;;;;;;;;;5166859;27;20051;-69
2022/11/27 07:54:53;;;;;;;7.25;3.45;;;;;;;;;;5163368;27;20051;-70
2022/11/27 07:57:20;;;;;;;10.70;3.55;;;;;;;;;;5165168;27;20053;-68
2022/11/27 07:59:46;;;;;;;8.05;3.80;;;;;;;;;;5164000;27;20054;-69
2022/11/27 08:02:13;;;;;;;10.90;3.70;;;;;;;;;;5164659;27;20051;-69
2022/11/27 08:04:39;;;;;;;6.85;2.92;;;;;;;;;;5164516;27;20051;-68
2022/11/27 08:07:06;;;;;;;7.22;3.53;;;;;;;;;;5165586;27;20563;-69
2022/11/27 08:09:33;;;;;;;8.18;3.50;;;;;;;;;;5160308;27;20170;-69
2022/11/27 08:11:59;;;;;;;6.35;3.97;;;;;;;;;;5162794;27;20055;-69
2022/11/27 08:14:26;;;;;;;8.80;3.53;;;;;;;;;;5163775;27;20082;-68
2022/11/27 08:16:52;;;;;;;6.93;3.78;;;;;;;;;;5161525;27;20099;-69
2022/11/27 08:19:18;;;;;;;9.35;4.03;;;;;;;;;;5163468;27;20039;-68
2022/11/27 08:21:45;;;;;;;10.65;4.05;;;;;;;;;;5167699;27;20445;-68
2022/11/27 08:24:11;;;;;;;12.10;4.50;;;;;;;;;;5163297;27;20054;-68
2022/11/27 08:26:38;;;;;;;10.13;4.28;;;;;;;;;;5166567;27;20159;-68
2022/11/27 08:29:05;;;;;;;18.10;4.40;;;;;;;;;;5167055;27;20127;-68
2022/11/27 08:31:32;;;;;;;9.75;3.58;;;;;;;;;;5164729;27;20050;-68
2022/11/27 08:33:59;;;;;;;8.20;3.47;;;;;;;;;;5159271;27;20112;-68
2022/11/27 08:36:25;;;;;;;7.47;3.90;;;;;;;;;;5161762;27;20058;-69
2022/11/27 08:38:52;;;;;;;9.07;3.88;;;;;;;;;;5156059;27;20510;-69
2022/11/27 08:41:19;;;;;;;7.70;3.70;;;;;;;;;;5156352;27;20055;-68
2022/11/27 08:43:45;;;;;;;6.97;3.58;;;;;;;;;;5157670;27;20558;-69
2022/11/27 08:46:11;;;;;;;11.55;3.97;;;;;;;;;;5160818;27;20524;-68
2022/11/27 08:48:38;;;;;;;6.53;3.60;;;;;;;;;;5160005;27;20043;-69
2022/11/27 08:51:06;;;;;;;9.95;4.15;;;;;;;;;;5160560;27;20487;-69
2022/11/27 08:53:32;;;;;;;11.32;4.00;;;;;;;;;;5163906;27;20107;-70
2022/11/27 08:56:09;;;;;;;10.40;4.22;;;;;;;;;;5164098;27;20066;-69
2022/11/27 08:58:36;;;;;;;9.23;4.22;;;;;;;;;;5160252;27;20519;-68
2022/11/27 09:01:06;;;;;;;13.68;5.70;;;;;;;;;;5162846;27;20055;-70
2022/11/27 09:03:32;;;;;;;7.25;3.90;;;;;;;;;;5154195;27;20061;-69
2022/11/27 09:05:59;;;;;;;7.03;4.18;;;;;;;;;;5164282;27;20051;-68
2022/11/27 09:08:25;;;;;;;8.10;4.10;;;;;;;;;;5165538;27;20050;-68
2022/11/27 09:10:52;;;;;;;8.55;3.97;;;;;;;;;;5165486;27;20055;-69
2022/11/27 09:13:18;;;;;;;9.23;4.32;;;;;;;;;;5161094;27;20126;-69
2022/11/27 09:15:44;;;;;;;11.07;4.47;;;;;;;;;;5162683;27;20141;-69
2022/11/27 09:18:10;;;;;;;11.45;4.32;;;;;;;;;;5162554;27;20050;-69
2022/11/27 09:20:37;;;;;;;9.52;4.28;;;;;;;;;;5165842;27;20051;-69
2022/11/27 09:23:03;;;;;;;10.77;4.40;;;;;;;;;;5162656;27;20054;-69
2022/11/27 09:25:30;;;;;;;6.30;3.95;;;;;;;;;;5160427;27;20050;-69
2022/11/27 09:27:56;;;;;;;9.35;4.32;;;;;;;;;;5162585;27;20049;-69
2022/11/27 09:30:23;;;;;;;10.05;4.38;;;;;;;;;;5164087;27;20122;-69
2022/11/27 09:32:50;;;;;;;9.68;4.85;;;;;;;;;;5161049;27;20504;-69
2022/11/27 09:35:17;;;;;;;9.77;5.00;;;;;;;;;;5164840;27;20051;-69
2022/11/27 09:37:43;;;;;;;6.43;4.30;;;;;;;;;;5161843;27;20047;-68
2022/11/27 09:40:13;;;;;;;17.40;4.82;;;;;;;;;;5164872;27;20053;-69
2022/11/27 09:42:42;;;;;;;9.18;4.88;;;;;;;;;;5162193;27;20050;-69
2022/11/27 09:45:13;;;;;;;8.57;4.47;;;;;;;;;;5153287;27;20505;-69
2022/11/27 09:47:43;;;;;;;8.85;4.68;;;;;;;;;;5144774;27;20090;-71
2022/11/27 09:50:12;;;;;;;12.60;5.60;;;;;;;;;;5144498;27;20058;-68
2022/11/27 09:52:43;;;;;;;13.07;5.25;;;;;;;;;;5157606;27;20146;-69
2022/11/27 09:55:14;;;;;;;8.13;4.57;;;;;;;;;;5163443;27;20133;-69
2022/11/27 09:57:40;;;;;;;9.15;5.22;;;;;;;;;;5167718;27;20053;-69
2022/11/27 10:00:12;;;;;;;12.70;5.05;;;;;;;;;;5166990;27;20133;-69
2022/11/27 10:02:39;;;;;;;7.00;4.68;;;;;;;;;;5167337;27;20483;-69
2022/11/27 10:05:12;;;;;;;10.10;5.20;;;;;;;;;;5166688;27;20058;-70
2022/11/27 10:07:49;;;;;;;9.77;5.35;;;;;;;;;;5167719;27;20043;-70
2022/11/27 10:10:24;;;;;;;9.55;5.65;;;;;;;;;;5149565;27;20121;-69
2022/11/27 10:12:54;;;;;;;10.18;5.60;;;;;;;;;;5168418;27;20590;-70
2022/11/27 10:15:35;;;;;;;10.65;5.30;;;;;;;;;;5166581;27;20483;-69
2022/11/27 10:18:01;;;;;;;11.23;5.55;;;;;;;;;;5162197;27;20405;-69
2022/11/27 10:20:35;;;;;;;9.75;5.50;;;;;;;;;;5164191;27;20435;-69
2022/11/27 10:23:05;;;;;;;7.60;5.13;;;;;;;;;;5162018;27;20053;-70
2022/11/27 10:25:36;;;;;;;10.75;5.72;;;;;;;;;;5161296;27;20059;-69
2022/11/27 10:28:09;;;;;;;10.40;5.47;;;;;;;;;;5144886;27;20167;-71
2022/11/27 10:30:38;;;;;;;14.20;5.80;;;;;;;;;;5164173;27;20080;-71
2022/11/27 10:33:12;;;;;;;9.88;5.68;;;;;;;;;;5160845;27;20456;-70
2022/11/27 10:35:39;;;;;;;11.63;5.07;;;;;;;;;;5160377;27;20289;-72
2022/11/27 10:38:08;;;;;;;11.25;5.30;;;;;;;;;;5162537;27;20633;-71
2022/11/27 10:40:50;;;;;;;7.80;5.10;;;;;;;;;;5159665;27;20078;-69
2022/11/27 10:43:16;;;;;;;9.48;5.13;;;;;;;;;;5167258;27;20080;-69
2022/11/27 10:45:57;;;;;;;12.38;5.40;;;;;;;;;;5165701;27;20047;-70
2022/11/27 10:48:26;;;;;;;10.95;5.32;;;;;;;;;;5166733;27;20560;-69
2022/11/27 10:50:52;;;;;;;12.68;5.57;;;;;;;;;;5164952;27;20046;-70
2022/11/27 10:53:19;;;;;;;10.20;5.50;;;;;;;;;;5167039;27;20055;-69
2022/11/27 10:55:51;;;;;;;12.40;5.38;;;;;;;;;;5167202;27;20058;-70
2022/11/27 10:58:24;;;;;;;9.00;5.07;;;;;;;;;;5167334;27;20055;-71
2022/11/27 11:01:10;;;;;;;11.93;6.25;;;;;;;;;;5167805;27;20500;-72
2022/11/27 11:03:36;;;;;;;12.32;5.18;;;;;;;;;;5167484;27;20086;-70
2022/11/27 11:06:05;;;;;;;15.00;6.18;;;;;;;;;;5166859;27;20051;-71
2022/11/27 11:08:47;;;;;;;9.82;5.65;;;;;;;;;;5158499;27;20043;-71
2022/11/27 11:11:23;;;;;;;12.60;5.50;;;;;;;;;;5162545;27;20055;-70
2022/11/27 11:13:50;;;;;;;12.30;5.80;;;;;;;;;;5164108;27;20042;-70
2022/11/27 11:16:29;;;;;;;9.55;5.53;;;;;;;;;;5166154;27;20104;-70
2022/11/27 11:19:01;;;;;;;16.08;6.22;;;;;;;;;;5166981;27;20582;-70
2022/11/27 11:21:30;;;;;;;11.23;5.47;;;;;;;;;;5165805;27;20051;-71
2022/11/27 11:23:56;;;;;;;12.05;5.88;;;;;;;;;;5165902;27;20053;-70
2022/11/27 11:26:58;;;;;;;8.80;5.85;;;;;;;;;;5148044;27;20468;-69
2022/11/27 11:29:39;;;;;;;12.07;5.47;;;;;;;;;;5058980;28;20048;-68
2022/11/27 11:32:12;;;;;;;13.52;6.15;;;;;;;;;;5061087;28;20061;-71
2022/11/27 11:34:46;;;;;;;10.05;5.93;;;;;;;;;;5061508;28;20148;-71
2022/11/27 11:37:31;;;;;;;9.07;5.43;;;;;;;;;;5057405;28;20693;-69
2022/11/27 11:40:07;;;;;;;11.35;6.10;;;;;;;;;;5061253;28;20063;-71
2022/11/27 11:42:53;;;;;;;9.82;5.40;;;;;;;;;;5044853;28;20132;-70
2022/11/27 11:45:20;;;;;;;9.70;5.45;;;;;;;;;;5058535;28;20060;-70
2022/11/27 11:47:49;;;;;;;9.20;4.90;;;;;;;;;;5052133;28;20573;-69
2022/11/27 11:50:36;;;;;;;8.20;5.43;;;;;;;;;;5059960;28;20056;-69
2022/11/27 11:53:21;;;;;;;13.10;6.38;;;;;;;;;;5059556;28;20049;-70
2022/11/27 11:56:02;;;;;;;12.23;6.15;;;;;;;;;;5060289;28;20955;-69
2022/11/27 11:58:38;;;;;;;15.43;6.65;;;;;;;;;;5060830;28;20049;-68
2022/11/27 12:01:16;;;;;;;8.60;5.65;;;;;;;;;;5060187;28;20076;-71
2022/11/27 12:03:52;;;;;;;14.63;6.07;;;;;;;;;;5114889;27;20055;-71
2022/11/27 12:06:26;;;;;;;11.23;6.45;;;;;;;;;;5156020;27;20516;-71
2022/11/27 12:09:11;;;;;;;9.70;5.68;;;;;;;;;;5162072;27;20061;-70
2022/11/27 12:11:41;;;;;;;9.52;5.82;;;;;;;;;;5167088;27;20095;-72
2022/11/27 12:14:24;;;;;;;12.38;6.78;;;;;;;;;;5166145;27;20666;-71
2022/11/27 12:16:59;;;;;;;7.70;5.57;;;;;;;;;;5145457;27;20424;-71
2022/11/27 12:19:25;;;;;;;8.02;5.63;;;;;;;;;;5147972;27;20043;-71
2022/11/27 12:22:05;;;;;;;10.00;6.07;;;;;;;;;;5166046;27;20084;-72
2022/11/27 12:24:50;;;;;;;12.93;6.47;;;;;;;;;;5164023;27;20057;-70
2022/11/27 12:27:22;;;;;;;12.10;6.63;;;;;;;;;;5164100;27;20043;-71
2022/11/27 12:29:59;;;;;;;10.13;6.32;;;;;;;;;;5164961;27;20564;-70
2022/11/27 12:32:29;;;;;;;10.80;5.75;;;;;;;;;;5165002;27;20500;-71
2022/11/27 12:34:55;;;;;;;10.90;6.00;;;;;;;;;;5166220;27;20055;-70
2022/11/27 12:37:27;;;;;;;10.32;5.43;;;;;;;;;;5164544;27;20046;-70
2022/11/27 12:40:12;;;;;;;10.60;6.20;;;;;;;;;;5163364;27;20090;-71
2022/11/27 12:42:54;;;;;;;10.25;6.03;;;;;;;;;;5166833;27;20087;-69
2022/11/27 12:45:24;;;;;;;9.60;5.75;;;;;;;;;;5146474;27;20061;-70
2022/11/27 12:47:53;;;;;;;10.05;5.75;;;;;;;;;;5165149;27;20541;-70
2022/11/27 12:50:24;;;;;;;9.77;5.53;;;;;;;;;;5163587;27;20046;-70
2022/11/27 12:53:01;;;;;;;8.75;5.55;;;;;;;;;;5165330;27;20634;-71
2022/11/27 12:55:29;;;;;;;10.18;6.05;;;;;;;;;;5165987;27;20134;-70
2022/11/27 12:57:59;;;;;;;13.13;5.90;;;;;;;;;;5165963;27;20062;-70
2022/11/27 13:00:28;;;;;;;9.35;5.55;;;;;;;;;;5160754;27;20046;-70
2022/11/27 13:03:07;;;;;;;10.70;5.72;;;;;;;;;;5164159;27;20053;-69
2022/11/27 13:05:42;;;;;;;9.38;6.10;;;;;;;;;;5163059;27;20051;-70
2022/11/27 13:08:14;;;;;;;13.13;5.90;;;;;;;;;;5165105;27;20053;-70
2022/11/27 13:10:53;;;;;;;10.55;5.85;;;;;;;;;;5164264;27;20050;-69
2022/11/27 13:13:22;;;;;;;14.25;7.35;;;;;;;;;;5165141;27;20535;-71
2022/11/27 13:15:55;;;;;;;12.07;5.72;;;;;;;;;;5165276;27;20047;-70
2022/11/27 13:18:42;;;;;;;11.82;6.07;;;;;;;;;;5161030;27;20363;-71
2022/11/27 13:21:17;;;;;;;8.55;5.78;;;;;;;;;;5141543;27;20510;-70
2022/11/27 13:23:44;;;;;;;11.48;5.90;;;;;;;;;;5162431;27;20602;-71
2022/11/27 13:26:14;;;;;;;13.75;6.20;;;;;;;;;;5165644;27;20516;-71
2022/11/27 13:28:44;;;;;;;8.57;5.22;;;;;;;;;;5162992;27;20100;-69
2022/11/27 13:31:19;;;;;;;10.18;5.82;;;;;;;;;;5161161;27;20483;-70
2022/11/27 13:33:46;;;;;;;9.33;5.40;;;;;;;;;;5161886;27;20058;-70
2022/11/27 13:36:24;;;;;;;9.00;5.70;;;;;;;;;;5164489;27;20272;-69
2022/11/27 13:38:53;;;;;;;21.95;6.32;;;;;;;;;;5163303;27;20956;-70
2022/11/27 13:41:21;;;;;;;12.80;6.45;;;;;;;;;;5163781;27;20055;-70
2022/11/27 13:43:49;;;;;;;13.23;5.72;;;;;;;;;;5164907;27;20556;-70
2022/11/27 13:46:23;;;;;;;8.35;5.38;;;;;;;;;;5164189;27;20050;-70
2022/11/27 13:48:52;;;;;;;9.73;6.07;;;;;;;;;;5163974;27;20082;-70
2022/11/27 13:51:24;;;;;;;8.43;5.57;;;;;;;;;;5163539;27;20076;-70
2022/11/27 13:53:50;;;;;;;8.02;5.47;;;;;;;;;;5159374;27;20054;-70
2022/11/27 13:56:26;;;;;;;10.75;5.63;;;;;;;;;;5157712;27;20050;-70
2022/11/27 13:58:53;;;;;;;8.43;5.35;;;;;;;;;;5162289;27;20062;-70
2022/11/27 14:01:20;;;;;;;9.38;5.47;;;;;;;;;;5163278;27;20055;-70
2022/11/27 14:03:47;;;;;;;8.82;5.72;;;;;;;;;;5161625;27;20214;-69
2022/11/27 14:06:20;;;;;;;12.95;5.68;;;;;;;;;;5163807;27;20050;-70
2022/11/27 14:08:52;;;;;;;10.40;6.38;;;;;;;;;;5164595;27;20126;-69
2022/11/27 14:11:28;;;;;;;7.43;5.25;;;;;;;;;;5163576;27;20062;-70
2022/11/27 14:13:55;;;;;;;9.73;5.85;;;;;;;;;;5162997;27;20440;-69
2022/11/27 14:16:25;;;;;;;11.27;6.15;;;;;;;;;;5163496;27;20466;-70
2022/11/27 14:18:52;;;;;;;7.82;5.35;;;;;;;;;;5164158;27;20197;-70
2022/11/27 14:21:37;;;;;;;10.05;5.88;;;;;;;;;;5160601;27;20141;-69
2022/11/27 14:24:21;;;;;;;10.35;5.65;;;;;;;;;;5144149;27;20536;-69
2022/11/27 14:26:48;;;;;;;14.38;6.35;;;;;;;;;;5162785;27;20156;-70
2022/11/27 14:29:14;;;;;;;11.00;6.22;;;;;;;;;;5144820;27;20058;-70
2022/11/27 14:31:42;;;;;;;10.82;6.03;;;;;;;;;;5163777;27;20092;-69
2022/11/27 14:34:23;;;;;;;12.02;6.13;;;;;;;;;;5161584;27;20071;-69
2022/11/27 14:36:51;;;;;;;7.93;5.15;;;;;;;;;;5164387;27;20460;-69
2022/11/27 14:39:21;;;;;;;11.50;6.30;;;;;;;;;;5163888;27;20507;-69
2022/11/27 14:41:57;;;;;;;11.27;6.18;;;;;;;;;;5163193;27;20107;-69
2022/11/27 14:44:23;;;;;;;;;;;;;;;;;;5166013;27;20047;-69
2022/11/27 14:46:49;;;;;;;;;;;;;;;;;;5167311;27;45098;-69
2022/11/27 14:49:17;;;;;;;10.45;6.20;;;;;;;;;;5159611;27;46503;-69